createdAt,value
2023-02-09T00:02:29.532Z,-2.14
2023-02-09T00:07:21.642Z,-1.99
2023-02-09T00:12:32.117Z,-4.69
2023-02-09T00:17:25.052Z,-1.35
2023-02-09T00:22:16.818Z,-0.59
2023-02-09T00:27:08.737Z,-1.39
2023-02-09T00:32:00.520Z,-1.90
2023-02-09T00:36:52.295Z,-1.59
2023-02-09T00:42:02.574Z,-0.74
2023-02-09T00:46:54.441Z,-2.38
2023-02-09T00:51:46.702Z,-2.52
2023-02-09T00:56:38.587Z,-3.14
2023-02-09T01:01:31.336Z,-2.56
2023-02-09T01:06:23.115Z,-1.64
2023-02-09T01:11:15.796Z,-2.35
2023-02-09T01:16:09.220Z,-0.89
2023-02-09T01:21:01.316Z,-0.89
2023-02-09T01:26:07.689Z,-2.70
2023-02-09T01:30:59.555Z,-1.04
2023-02-09T01:35:51.410Z,-2.22
2023-02-09T01:40:48.011Z,-1.07
2023-02-09T01:45:51.040Z,-1.07
2023-02-09T01:50:46.653Z,-1.27
2023-02-09T01:55:48.518Z,-2.34
2023-02-09T02:00:40.486Z,-2.07
2023-02-09T02:05:36.718Z,-1.16
2023-02-09T02:10:29.189Z,-2.02
2023-02-09T02:15:25.427Z,-1.17
2023-02-09T02:20:29.314Z,-1.20
2023-02-09T02:25:40.161Z,-1.24
2023-02-09T02:30:58.350Z,-1.25
2023-02-09T02:36:17.674Z,-1.26
2023-02-09T02:42:15.612Z,-1.28
2023-02-09T02:47:11.390Z,-1.92
2023-02-09T02:52:08.092Z,-1.50
2023-02-09T02:57:04.707Z,-2.08
2023-02-09T03:02:02.099Z,-2.34
2023-02-09T03:06:53.889Z,-2.37
2023-02-09T03:11:49.437Z,-4.35
2023-02-09T03:22:25.089Z,-1.54
2023-02-09T03:27:19.424Z,-1.63
2023-02-09T03:32:11.707Z,-1.85
2023-02-09T03:37:03.558Z,-2.78
2023-02-09T03:41:55.311Z,-1.92
2023-02-09T03:46:47.086Z,-3.37
2023-02-09T03:51:38.788Z,-3.03
2023-02-09T03:56:30.402Z,-2.11
2023-02-09T04:01:22.115Z,-2.38
2023-02-09T04:06:13.808Z,-3.05
2023-02-09T04:11:05.550Z,-3.05
2023-02-09T04:15:57.258Z,-2.38
2023-02-09T04:20:49.297Z,-5.57
2023-02-09T04:25:41.045Z,-4.67
2023-02-09T04:30:32.756Z,-3.10
2023-02-09T04:35:26.623Z,-3.27
2023-02-09T04:40:18.418Z,-2.71
2023-02-09T04:45:10.095Z,-3.82
2023-02-09T04:50:02.007Z,-3.42
2023-02-09T04:54:53.802Z,-5.52
2023-02-09T04:59:45.764Z,-5.77
2023-02-09T05:04:37.476Z,-2.37
2023-02-09T05:09:29.416Z,-3.66
2023-02-09T05:14:21.278Z,-4.19
2023-02-09T05:19:13.108Z,-2.55
2023-02-09T05:24:05.144Z,-4.15
2023-02-09T05:28:56.949Z,-3.14
2023-02-09T05:33:48.672Z,-2.84
2023-02-09T05:38:40.899Z,-2.74
2023-02-09T05:43:32.604Z,-2.82
2023-02-09T05:48:25.180Z,-3.88
2023-02-09T05:53:17.051Z,-3.31
2023-02-09T05:58:08.836Z,-6.81
2023-02-09T06:03:00.445Z,-2.82
2023-02-09T06:07:52.531Z,-5.76
2023-02-09T06:12:44.654Z,-3.01
2023-02-09T06:17:36.931Z,-4.04
2023-02-09T06:22:29.984Z,-3.60
2023-02-09T06:27:21.742Z,-3.45
2023-02-09T06:32:13.513Z,-3.15
2023-02-09T06:37:05.246Z,-3.89
2023-02-09T06:41:57.128Z,-3.77
2023-02-09T06:46:49.010Z,-6.01
2023-02-09T06:51:40.832Z,-6.50
2023-02-09T06:56:32.906Z,-4.51
2023-02-09T07:01:24.669Z,-2.69
2023-02-09T07:06:18.929Z,-2.82
2023-02-09T07:11:14.159Z,-5.91
2023-02-09T07:16:08.419Z,-2.40
2023-02-09T07:21:08.730Z,-3.72
2023-02-09T07:26:05.980Z,-2.15
2023-02-09T07:31:02.870Z,-4.53
2023-02-09T07:35:54.958Z,-3.75
2023-02-09T07:40:47.051Z,-4.38
2023-02-09T07:45:39.751Z,-4.01
2023-02-09T07:50:32.008Z,-3.69
2023-02-09T07:55:24.353Z,-2.75
2023-02-09T08:00:17.549Z,-1.28
2023-02-09T08:05:14.548Z,0.57
2023-02-09T08:10:06.539Z,3.34
2023-02-09T08:14:58.310Z,0.77
2023-02-09T08:20:00.783Z,3.30
2023-02-09T08:24:53.284Z,2.41
2023-02-09T08:29:46.541Z,3.50
2023-02-09T08:34:39.045Z,3.69
2023-02-09T08:39:30.793Z,4.13
2023-02-09T08:44:22.572Z,3.07
2023-02-09T08:49:14.310Z,4.73
2023-02-09T08:54:05.940Z,3.49
2023-02-09T08:58:58.016Z,3.48
2023-02-09T09:03:49.796Z,3.90
2023-02-09T09:08:41.690Z,5.04
2023-02-09T09:13:33.483Z,2.22
2023-02-09T09:18:26.108Z,4.12
2023-02-09T09:23:18.208Z,2.02
2023-02-09T09:28:10.344Z,4.30
2023-02-09T09:33:02.652Z,4.95
2023-02-09T09:37:57.307Z,4.80
2023-02-09T09:42:54.948Z,5.27
2023-02-09T09:47:47.812Z,4.34
2023-02-09T09:52:42.665Z,2.99
2023-02-09T09:57:41.915Z,4.55
2023-02-09T10:02:34.659Z,1.99
2023-02-09T10:07:32.142Z,2.41
2023-02-09T10:12:34.058Z,4.39
2023-02-09T10:17:25.691Z,2.89
2023-02-09T10:22:20.752Z,3.05
2023-02-09T10:27:26.456Z,3.14
2023-02-09T10:32:28.967Z,3.92
2023-02-09T10:37:26.895Z,4.00
2023-02-09T10:42:25.151Z,3.08
2023-02-09T10:47:19.836Z,4.16
2023-02-09T10:52:23.624Z,3.63
2023-02-09T10:57:22.606Z,4.14
2023-02-09T11:02:29.832Z,3.56
2023-02-09T11:07:26.623Z,4.68
2023-02-09T11:12:22.801Z,4.15
2023-02-09T11:17:26.767Z,4.23
2023-02-09T11:22:18.412Z,4.57
2023-02-09T11:27:28.184Z,4.30
2023-02-09T11:32:43.870Z,4.05
2023-02-09T11:37:39.576Z,4.62
2023-02-09T11:42:45.762Z,3.65
2023-02-09T11:47:48.028Z,3.09
2023-02-09T11:52:51.629Z,2.63
2023-02-09T11:57:50.678Z,5.31
2023-02-09T12:02:46.335Z,5.37
2023-02-09T12:07:44.506Z,5.34
2023-02-09T12:13:01.469Z,5.21
2023-02-09T12:17:57.717Z,5.33
2023-02-09T12:22:53.823Z,5.29
2023-02-09T12:28:23.524Z,5.57
2023-02-09T12:33:16.414Z,6.08
2023-02-09T12:38:18.478Z,6.21
2023-02-09T12:43:25.699Z,5.35
2023-02-09T12:48:19.205Z,5.85
2023-02-09T12:53:23.438Z,6.21
2023-02-09T12:58:40.109Z,6.58
2023-02-09T13:03:41.072Z,6.26
2023-02-09T13:08:37.864Z,6.40
2023-02-09T13:13:33.090Z,6.73
2023-02-09T13:18:40.995Z,6.86
2023-02-09T13:23:41.512Z,5.60
2023-02-09T13:28:33.290Z,7.36
2023-02-09T13:33:50.993Z,6.97
2023-02-09T13:38:43.240Z,6.33
2023-02-09T13:43:40.424Z,6.16
2023-02-09T13:48:35.668Z,7.21
2023-02-09T13:53:29.158Z,5.64
2023-02-09T13:58:24.898Z,7.20
2023-02-09T14:03:21.448Z,7.20
2023-02-09T14:08:15.576Z,6.98
2023-02-09T14:13:20.352Z,7.02
2023-02-09T14:18:47.525Z,6.99
2023-02-09T14:23:48.749Z,6.91
2023-02-09T14:28:43.306Z,7.14
2023-02-09T14:33:37.516Z,6.00
2023-02-09T14:38:42.957Z,6.90
2023-02-09T14:43:34.695Z,6.79
2023-02-09T14:48:28.612Z,5.48
2023-02-09T14:53:21.926Z,6.87
2023-02-09T14:58:24.998Z,6.73
2023-02-09T15:03:16.659Z,6.96
2023-02-09T15:08:15.994Z,6.45
2023-02-09T15:13:11.253Z,5.35
2023-02-09T15:18:03.320Z,6.72
2023-02-09T15:22:55.869Z,6.57
2023-02-09T15:27:52.734Z,6.82
2023-02-09T15:32:45.151Z,6.15
2023-02-09T15:37:39.461Z,6.37
2023-02-09T15:42:49.794Z,6.26
2023-02-09T15:47:52.774Z,5.36
2023-02-09T15:52:44.593Z,5.31
2023-02-09T15:57:36.618Z,5.71
2023-02-09T16:02:28.267Z,5.55
2023-02-09T16:07:26.102Z,5.41
2023-02-09T16:12:17.730Z,4.93
2023-02-09T16:17:09.452Z,4.36
2023-02-09T16:22:04.493Z,4.93
2023-02-09T16:26:58.887Z,4.75
2023-02-09T16:31:50.547Z,4.05
2023-02-09T16:36:43.340Z,4.46
2023-02-09T16:41:47.321Z,2.70
2023-02-09T16:46:39.084Z,3.98
2023-02-09T16:51:30.769Z,3.98
2023-02-09T16:56:24.851Z,3.88
2023-02-09T17:01:19.126Z,3.83
2023-02-09T17:06:20.157Z,3.61
2023-02-09T17:11:29.922Z,3.10
2023-02-09T17:16:24.438Z,3.27
2023-02-09T17:21:19.116Z,3.08
2023-02-09T17:26:11.893Z,2.64
2023-02-09T17:31:13.063Z,2.79
2023-02-09T17:41:21.189Z,1.97
2023-02-09T17:46:15.957Z,2.56
2023-02-09T17:51:19.546Z,1.74
2023-02-09T17:56:11.768Z,1.78
2023-02-09T18:01:32.620Z,1.65
2023-02-09T18:06:34.310Z,1.28
2023-02-09T18:11:45.506Z,1.29
2023-02-09T18:16:37.692Z,0.68
2023-02-09T18:21:29.408Z,0.03
2023-02-09T18:26:21.065Z,1.85
2023-02-09T18:31:16.387Z,1.80
2023-02-09T18:36:08.665Z,1.41
2023-02-09T18:41:00.326Z,1.10
2023-02-09T18:45:52.148Z,0.68
2023-02-09T18:50:44.170Z,0.67
2023-02-09T18:55:35.865Z,1.12
2023-02-09T19:00:28.054Z,1.77
2023-02-09T19:05:19.972Z,1.42
2023-02-09T19:10:14.510Z,1.93
2023-02-09T19:15:06.358Z,2.41
2023-02-09T19:19:59.170Z,2.47
2023-02-09T19:24:54.133Z,2.92
2023-02-09T19:29:46.487Z,3.05
2023-02-09T19:34:39.997Z,2.49
2023-02-09T19:39:34.897Z,2.09
2023-02-09T19:44:27.822Z,2.73
2023-02-09T19:49:19.572Z,3.13
2023-02-09T19:54:11.212Z,2.95
2023-02-09T19:59:04.120Z,3.59
2023-02-09T20:03:56.324Z,3.69
2023-02-09T20:08:48.106Z,3.23
2023-02-09T20:13:39.892Z,2.91
2023-02-09T20:18:31.466Z,3.57
2023-02-09T20:23:23.772Z,3.91
2023-02-09T20:28:15.595Z,3.22
2023-02-09T20:33:07.308Z,3.64
2023-02-09T20:37:59.035Z,3.02
2023-02-09T20:43:09.380Z,0.55
2023-02-09T20:48:01.342Z,3.49
2023-02-09T20:52:53.019Z,4.01
2023-02-09T20:57:44.660Z,2.86
2023-02-09T21:02:37.882Z,4.08
2023-02-09T21:07:29.697Z,3.25
2023-02-09T21:12:22.249Z,4.09
2023-02-09T21:17:14.417Z,3.97
2023-02-09T21:22:06.507Z,3.57
2023-02-09T21:27:00.620Z,2.67
2023-02-09T21:31:52.644Z,3.86
2023-02-09T21:36:44.495Z,3.86
2023-02-09T21:41:54.862Z,1.73
2023-02-09T21:46:48.733Z,2.51
2023-02-09T21:51:41.990Z,1.67
2023-02-09T21:56:33.695Z,2.96
2023-02-09T22:01:25.409Z,3.22
2023-02-09T22:06:17.120Z,3.26
2023-02-09T22:11:09.003Z,3.24
2023-02-09T22:16:06.177Z,2.85
2023-02-09T22:20:57.812Z,3.57
2023-02-09T22:25:49.439Z,2.78
2023-02-09T22:30:41.202Z,3.58
2023-02-09T22:35:32.901Z,2.95
2023-02-09T22:40:24.569Z,3.20
2023-02-09T22:45:16.321Z,1.42
2023-02-09T22:50:08.657Z,3.17
2023-02-09T22:55:00.441Z,3.39
2023-02-09T22:59:52.176Z,3.10
2023-02-09T23:04:43.823Z,3.08
2023-02-09T23:09:35.648Z,3.15
2023-02-09T23:14:27.858Z,3.81
2023-02-09T23:19:20.958Z,2.42
2023-02-09T23:24:14.291Z,3.15
2023-02-09T23:29:09.519Z,1.67
2023-02-09T23:34:01.148Z,3.29
2023-02-09T23:38:58.857Z,2.87
2023-02-09T23:43:52.309Z,3.16
2023-02-09T23:48:47.970Z,3.63
2023-02-09T23:53:39.982Z,3.65
2023-02-09T23:58:37.986Z,2.47
